Aérodrome :
LOGIN :

S'inscrire | Disclaimer

   EN    FR    IT 

 










Légende :    VFR   VFR Marginal   IFR   IFR Intensif   IFR Très Intensif
Visi : 
Plafond : 
>= 8 km
>= 3000ft
5 à 8 km
1000 à 3000 ft
1500m à 5 km
500 à 1000 ft
800 à 1500m
200 à 500 ft
< 800m
< 200 ft
Symboles :   Orages  Brouillard  Fortes neiges  Fortes précipitations  Vent > 20 kt
SIGMETs :   Divers  Orages  Givrage  Turbulence  Onde Orograph.  Cendres Volcan.







- Altitude de l'aérodrome : 1302 ft
- Code IATA : GNB
- Voir les cartes d'approche


LFLS - Grenoble / St. Geoirs

DERNIER METAR :
  • 240930Z AUTO 36009KT 320V050 CAVOK 21/13 Q1023 NOSIG

METARs EXPIRÉS :
  • 240900Z AUTO 36010KT 330V040 CAVOK 21/13 Q1023 NOSIG
  • 240830Z AUTO 33006KT 290V060 CAVOK 20/14 Q1023 NOSIG
  • 240800Z AUTO 35004KT 310V040 CAVOK 20/14 Q1023 NOSIG
  • 240730Z AUTO 35004KT 300V040 9999 FEW022 19/13 Q1023 NOSIG
  • 240700Z AUTO VRB02KT 9999 SCT019 19/13 Q1023 NOSIG

TAF TAF LFLS
Valide du 24 à 09h jusqu'au 25 à 09h UTC


240800Z 2409/2509 35010KT 9999 FEW050
BECMG 2420/2422 VRB02KT CAVOK
BECMG 2506/2508 36008KT
ATIS : +33 4 76 65 55 89
Pas de NOTAMs connus pour ce terrain.



MET'MAP, la Météo Aéronautique d'un coup d'oeil ! - Copyright ORBIFLY Décembre 2007 - Disclaimer

ORBIFLY MET'MAP TEAM :

Programmation & Développement : Alexandra Zaïnal
Conception & Développement : Baudouin d'Aumeries
Co-Programmation & Développement : Marc-Olivier Méhu
Soutien technique & logistique : Manuel Goepfert

Contact : metmap@orbifly.com




SOURCES & CREDITS :

   NOAA